Time;durP1;ratioP1;P1;durP2;ratioP2;P2;SDS_P1;SDS_P2;PMS_P1;PMS_P2;Temp;Humidity;BMP_temperature;BMP_pressure;BME280_temperature;BME280_humidity;BME280_pressure;Samples;Min_cycle;Max_cycle;Signal;HPM_P1;HPM_P2
2021/03/17 10:53:54;;;;;;;6.13;2.97;;;7.70;99.90;;;;;;5876860;24;20420;-88
2021/03/17 13:14:49;;;;;;;4.50;3.20;;;8.60;99.90;;;;;;4922873;29;20451;-86
2021/03/17 14:24:52;;;;;;;2.43;2.20;;;7.20;99.90;;;;;;5825477;24;20526;-89
2021/03/17 14:27:42;;;;;;;2.23;1.83;;;7.30;99.90;;;;;;6073139;23;20905;-90
2021/03/17 15:10:54;;;;;;;3.13;2.70;;;6.30;99.90;;;;;;5800167;24;20954;-90
2021/03/17 15:13:25;;;;;;;2.67;2.10;;;6.30;99.90;;;;;;6014218;23;20428;-89
2021/03/17 16:33:34;;;;;;;4.90;4.43;;;6.60;99.90;;;;;;6135764;23;20512;-83
2021/03/17 16:36:11;;;;;;;6.00;5.20;;;6.60;99.90;;;;;;6109289;23;20413;-84
2021/03/17 16:39:00;;;;;;;5.57;5.07;;;6.50;99.90;;;;;;6086402;23;20508;-84
2021/03/17 16:41:48;;;;;;;7.00;4.87;;;6.40;99.90;;;;;;6078928;23;20417;-85
2021/03/17 16:44:30;;;;;;;6.07;5.57;;;6.30;99.90;;;;;;6071109;23;20453;-84
2021/03/17 16:47:17;;;;;;;6.50;5.87;;;6.30;99.90;;;;;;6104704;23;20465;-84
2021/03/17 16:53:27;;;;;;;8.80;5.90;;;6.30;99.90;;;;;;6078403;23;20416;-85
2021/03/17 16:59:02;;;;;;;6.20;5.60;;;6.30;99.90;;;;;;6021165;23;20286;-85
2021/03/17 17:01:30;;;;;;;8.50;6.70;;;6.30;99.90;;;;;;6054920;23;20396;-85
2021/03/17 17:03:57;;;;;;;7.77;5.30;;;6.30;99.90;;;;;;6021060;23;20424;-85
2021/03/17 17:12:57;;;;;;;7.73;4.60;;;6.20;99.90;;;;;;6014625;23;20418;-85
2021/03/17 17:15:26;;;;;;;9.10;5.63;;;6.30;99.90;;;;;;6021979;23;20460;-85
2021/03/17 17:17:57;;;;;;;5.30;4.80;;;6.20;99.90;;;;;;6021844;23;20911;-85
2021/03/17 17:20:34;;;;;;;7.73;5.80;;;6.20;99.90;;;;;;6021831;23;20491;-85
2021/03/17 17:23:39;;;;;;;8.23;5.77;;;6.20;99.90;;;;;;6045569;23;20875;-84
2021/03/17 17:26:42;;;;;;;6.47;5.87;;;6.30;99.90;;;;;;6049566;23;20419;-84
2021/03/17 17:29:13;;;;;;;7.80;6.60;;;6.20;99.90;;;;;;6080853;23;20510;-84
2021/03/17 17:32:47;;;;;;;7.43;6.20;;;6.10;99.90;;;;;;6084162;23;20489;-84
2021/03/17 17:35:34;;;;;;;6.27;5.63;;;6.10;99.90;;;;;;6106392;23;20421;-84
2021/03/17 17:38:31;;;;;;;;;;;;;;;;;;;;;
2021/03/17 17:41:32;;;;;;;8.80;8.00;;;6.00;99.90;;;;;;6107966;23;20413;-85
2021/03/17 17:51:31;;;;;;;;;;;;;;;;;;;;;
2021/03/17 17:54:23;;;;;;;7.30;6.60;;;5.80;99.90;;;;;;6048683;23;20491;-85
2021/03/17 17:56:58;;;;;;;7.73;6.57;;;6.00;99.90;;;;;;6049761;23;20439;-85
2021/03/17 17:59:27;;;;;;;6.27;5.77;;;5.80;99.90;;;;;;6083775;23;20423;-85
2021/03/17 18:05:22;;;;;;;6.60;6.00;;;5.80;99.90;;;;;;6022751;23;20416;-85
2021/03/17 18:08:06;;;;;;;7.67;6.87;;;5.70;99.90;;;;;;6049063;23;20443;-85
2021/03/17 18:14:30;;;;;;;7.03;6.33;;;5.80;99.90;;;;;;6050441;23;20497;-85
2021/03/17 18:17:06;;;;;;;8.03;7.23;;;5.60;99.90;;;;;;6049113;23;20876;-85
2021/03/17 18:19:40;;;;;;;8.00;7.30;;;5.60;99.90;;;;;;6050030;23;20442;-85
2021/03/17 18:22:41;;;;;;;7.97;7.27;;;5.50;99.90;;;;;;6086991;23;20805;-85
2021/03/17 18:25:30;;;;;;;8.67;7.90;;;5.40;99.90;;;;;;6108026;23;20413;-85
2021/03/17 18:28:26;;;;;;;;;;;;;;;;;;;;;
2021/03/17 18:34:08;;;;;;;11.47;8.60;;;5.50;99.90;;;;;;6051043;23;20456;-84
2021/03/17 18:37:04;;;;;;;10.57;9.67;;;5.40;99.90;;;;;;6088265;23;20492;-84
2021/03/17 18:39:35;;;;;;;12.17;11.17;;;5.30;99.90;;;;;;6108398;23;20496;-84
2021/03/17 18:42:03;;;;;;;28.73;25.70;;;5.30;99.90;;;;;;6107969;23;20819;-84
2021/03/17 18:44:30;;;;;;;25.43;22.83;;;5.20;99.90;;;;;;6108039;23;20428;-84
2021/03/17 18:46:57;;;;;;;14.47;13.07;;;5.20;99.90;;;;;;6109195;23;20468;-84
2021/03/17 18:49:25;;;;;;;14.20;12.80;;;5.20;99.90;;;;;;6108825;23;20437;-84
2021/03/17 18:51:53;;;;;;;12.77;11.77;;;5.20;99.90;;;;;;6109573;23;20405;-84
2021/03/17 18:54:21;;;;;;;15.10;13.60;;;5.10;99.90;;;;;;6109185;23;20476;-84
2021/03/17 18:56:48;;;;;;;14.50;13.10;;;5.10;99.90;;;;;;6109574;23;20426;-85
2021/03/17 18:59:15;;;;;;;13.27;12.00;;;5.00;99.90;;;;;;6109286;23;20201;-84
2021/03/17 19:01:44;;;;;;;12.40;11.20;;;5.10;99.90;;;;;;6108047;23;20409;-85
2021/03/17 19:04:12;;;;;;;11.73;10.83;;;5.00;99.90;;;;;;6109302;23;20492;-85
2021/03/17 19:06:41;;;;;;;12.82;11.48;;;4.90;99.90;;;;;;6143497;23;20402;-85
2021/03/17 19:09:08;;;;;;;13.93;10.93;;;5.00;99.90;;;;;;6107813;23;20190;-85
2021/03/17 19:11:35;;;;;;;14.40;12.93;;;4.90;99.90;;;;;;6108356;23;20746;-85
2021/03/17 19:14:04;;;;;;;13.40;11.90;;;4.90;99.90;;;;;;6107997;23;20428;-85
2021/03/17 19:16:31;;;;;;;14.30;12.30;;;4.80;99.90;;;;;;6107609;23;20443;-85
2021/03/17 19:18:59;;;;;;;14.30;12.57;;;4.80;99.90;;;;;;6106232;23;20441;-84
2021/03/17 19:21:28;;;;;;;12.90;11.50;;;4.70;99.90;;;;;;6106877;23;20421;-84
2021/03/17 19:23:57;;;;;;;13.13;11.83;;;4.60;99.90;;;;;;6108990;23;20425;-84
2021/03/17 19:26:25;;;;;;;14.77;12.83;;;4.60;99.90;;;;;;6113792;23;20797;-85
2021/03/17 19:29:04;;;;;;;14.23;12.60;;;4.60;99.90;;;;;;6107157;23;20440;-85
2021/03/17 19:31:32;;;;;;;14.93;13.40;;;4.50;99.90;;;;;;6106660;23;20425;-85
2021/03/17 19:34:03;;;;;;;15.93;13.20;;;4.50;99.90;;;;;;6105863;23;20443;-85
2021/03/17 19:36:33;;;;;;;15.30;13.80;;;4.40;99.90;;;;;;6108556;23;20421;-85
2021/03/17 19:39:23;;;;;;;13.60;12.30;;;4.40;99.90;;;;;;6107839;23;20538;-85
2021/03/17 19:41:51;;;;;;;14.30;12.80;;;4.30;99.90;;;;;;6108317;23;20441;-85
2021/03/17 19:44:18;;;;;;;18.73;15.17;;;4.30;99.90;;;;;;6107574;23;20899;-85
2021/03/17 19:46:47;;;;;;;14.70;13.20;;;4.30;99.90;;;;;;6108608;23;20417;-85
2021/03/17 19:49:15;;;;;;;14.60;12.23;;;4.20;99.90;;;;;;6113162;23;20429;-84
2021/03/17 19:52:11;;;;;;;14.80;13.20;;;4.20;99.90;;;;;;6134120;23;20405;-85
2021/03/17 19:54:59;;;;;;;13.87;12.47;;;4.20;99.90;;;;;;6143335;23;20404;-85
2021/03/17 19:57:56;;;;;;;14.33;12.80;;;4.10;99.90;;;;;;6134235;23;20445;-85
2021/03/17 20:00:58;;;;;;;13.87;12.57;;;4.10;99.90;;;;;;6108417;23;20417;-85
2021/03/17 20:03:40;;;;;;;14.37;13.03;;;4.10;99.90;;;;;;6107858;23;20449;-85
2021/03/17 20:06:08;;;;;;;13.20;12.00;;;4.10;99.90;;;;;;6107795;23;20422;-85
2021/03/17 20:08:39;;;;;;;15.57;11.70;;;4.00;99.90;;;;;;6108030;23;20441;-85
2021/03/17 20:11:08;;;;;;;13.77;12.30;;;4.00;99.90;;;;;;6107004;23;20440;-85
2021/03/17 20:13:36;;;;;;;14.33;12.87;;;4.00;99.90;;;;;;6108799;23;20464;-85
2021/03/17 20:16:08;;;;;;;14.37;13.07;;;4.00;99.90;;;;;;6109117;23;20445;-85
2021/03/17 20:18:40;;;;;;;13.37;12.17;;;4.00;99.90;;;;;;6107908;23;20524;-85
2021/03/17 20:21:27;;;;;;;14.97;13.57;;;3.90;99.90;;;;;;6109017;23;20414;-85
2021/03/17 20:23:57;;;;;;;14.20;12.83;;;3.90;99.90;;;;;;6108056;23;20414;-85
2021/03/17 20:26:27;;;;;;;14.80;13.40;;;3.90;99.90;;;;;;6108052;23;20897;-85
2021/03/17 20:29:11;;;;;;;15.70;14.17;;;3.90;99.90;;;;;;6108165;23;20447;-85
2021/03/17 20:31:41;;;;;;;15.37;13.97;;;3.80;99.90;;;;;;6107640;23;20508;-85
2021/03/17 20:34:14;;;;;;;15.30;13.80;;;3.80;99.90;;;;;;6108186;23;20452;-85
2021/03/17 20:36:44;;;;;;;13.40;12.10;;;3.80;99.90;;;;;;6108320;23;20468;-85
2021/03/17 20:39:12;;;;;;;13.90;12.70;;;3.70;99.90;;;;;;6108504;23;21027;-85
2021/03/17 20:42:04;;;;;;;16.03;14.53;;;3.80;99.90;;;;;;6128139;23;20880;-85
2021/03/17 20:44:31;;;;;;;15.63;14.03;;;3.70;99.90;;;;;;6108119;23;20429;-85
2021/03/17 20:46:59;;;;;;;15.50;14.13;;;3.60;99.90;;;;;;6108329;23;20427;-85
2021/03/17 20:49:27;;;;;;;13.70;12.30;;;3.60;99.90;;;;;;6107791;23;20457;-85
2021/03/17 20:51:55;;;;;;;14.93;13.70;;;3.60;99.90;;;;;;6106962;23;20511;-84
2021/03/17 20:54:23;;;;;;;16.20;14.63;;;3.50;99.90;;;;;;6107778;23;20409;-84
2021/03/17 20:56:58;;;;;;;16.10;14.53;;;3.50;99.90;;;;;;6107882;23;20412;-84
2021/03/17 20:59:33;;;;;;;16.53;14.13;;;3.50;99.90;;;;;;6107711;23;20455;-84
2021/03/17 21:02:01;;;;;;;18.03;16.27;;;3.50;99.90;;;;;;6108249;23;20417;-85
2021/03/17 21:04:29;;;;;;;16.07;14.37;;;3.50;99.90;;;;;;6108032;23;20425;-85
2021/03/17 21:06:57;;;;;;;16.30;14.60;;;3.60;99.90;;;;;;6107509;23;20881;-85
2021/03/17 21:09:33;;;;;;;18.07;16.10;;;3.50;99.90;;;;;;6107711;23;20955;-85
2021/03/17 21:12:05;;;;;;;17.00;15.20;;;3.50;99.90;;;;;;6111844;23;20412;-85
2021/03/17 21:14:53;;;;;;;16.90;15.13;;;3.40;99.90;;;;;;6108195;23;20413;-85
2021/03/17 21:17:22;;;;;;;17.67;15.27;;;3.50;99.90;;;;;;6107007;23;20915;-85
2021/03/17 21:19:53;;;;;;;17.80;15.90;;;3.60;99.90;;;;;;6108156;23;20440;-85
2021/03/17 21:22:21;;;;;;;17.73;15.87;;;3.50;99.90;;;;;;6107145;23;20476;-85
2021/03/17 21:24:52;;;;;;;19.23;17.10;;;3.50;99.90;;;;;;6107444;23;20397;-85
2021/03/17 21:27:29;;;;;;;19.97;18.10;;;3.50;99.90;;;;;;6106606;23;20453;-85
2021/03/17 21:30:02;;;;;;;18.67;16.73;;;3.50;99.90;;;;;;6107243;23;20472;-85
2021/03/17 21:32:35;;;;;;;18.80;16.80;;;3.50;99.90;;;;;;6107082;23;20428;-85
2021/03/17 21:35:12;;;;;;;23.92;18.60;;;3.60;99.90;;;;;;6106311;23;20418;-85
2021/03/17 21:37:50;;;;;;;24.57;19.27;;;3.60;99.90;;;;;;6106512;23;20204;-85
2021/03/17 21:40:22;;;;;;;22.63;17.60;;;3.60;99.90;;;;;;6106784;23;20413;-85
2021/03/17 21:42:53;;;;;;;22.13;17.77;;;3.60;99.90;;;;;;6106455;23;20425;-85
2021/03/17 21:45:21;;;;;;;22.08;18.88;;;3.60;99.90;;;;;;6105825;23;20465;-85
2021/03/17 21:48:10;;;;;;;24.50;18.97;;;3.70;99.90;;;;;;6106996;23;20194;-85
2021/03/17 21:50:37;;;;;;;24.80;20.63;;;3.70;99.90;;;;;;6106435;23;20749;-85
2021/03/17 21:53:11;;;;;;;23.10;19.57;;;3.70;99.90;;;;;;6105945;23;20413;-85
2021/03/17 21:55:38;;;;;;;25.80;17.50;;;3.70;99.90;;;;;;6105386;23;20428;-85
2021/03/17 21:58:06;;;;;;;29.67;21.30;;;3.70;99.90;;;;;;6139341;23;20429;-85
2021/03/17 22:00:34;;;;;;;33.20;21.80;;;3.70;99.90;;;;;;6103733;23;20476;-85
2021/03/17 22:03:02;;;;;;;31.47;22.43;;;3.70;99.90;;;;;;6111035;23;20418;-85
